Tiempo atmosférico en la estación meteorológica de Las Cabezas de San Juan, Sevilla (105 m.)



Fecha
DESCASC
Temp. máxima en grados centígrados (hora)
DESCASC
Temp. mínima en grados centígrados (hora)
DESCASC
Temp. media en grados centígrados
DESCASC
Racha de viento máxima en m/sg (hora)
DESCASC
Velocidad máxima media en intervalos de 10 minutos(hora)
DESCASC
Precipitaciones diarias en mm
DESCASC
Precipitaciones de 00:00 a 06:00 en mm
DESCASC
Precipitaciones de 06:00 a 12:00 en mm
DESCASC
Precipitaciones de 12:00 a 18:00 en mm
DESCASC
Precipitaciones de 18:00 a 24:00 en mm
DESCASC
23-05-2020 37.2 (16:50) 17.3 (07:10) 27.3 8.61 (18:20) 4.72 (18:30) 0 0 0 0 0
22-05-2020 35.3 (17:10) 17.4 (04:10) 26.3 5.83 (15:20) 3.06 (20:10) 0 0 0 0 0
21-05-2020 33.4 (16:20) 15.8 (00:00) 24.6 6.94 (19:10) 3.89 (19:10) 0 0 0 0 0
20-05-2020 31.9 (17:40) 16.7 (00:00) 24.3 7.22 (16:20) 3.33 (19:30) 0 0 0 0 0
19-05-2020 32.5 (17:10) 15.3 (05:10) 23.9 5.83 (20:20) 2.22 (18:00) 0 0 0 0 0
18-05-2020 29.2 (17:10) 13.1 (00:00) 21.2 6.11 (18:50) 3.61 (04:00) 0 0 0 0 0
17-05-2020 25 (17:50) 11.9 (00:00) 18.4 11.67 (18:40) 6.39 (18:40) 0 0 0 0 0
16-05-2020 22.5 (15:10) 12.7 (00:00) 17.6 8.06 (15:20) 5.28 (17:30) 0.2 0 0.2 0 0
15-05-2020 20.3 (14:40) 12.1 (03:50) 16.2 9.44 (01:40) 5 (01:00) 1.2 0 0 1.2 0
14-05-2020 16.7 (17:50) 11.4 (00:00) 14.1 14.17 (13:30) 7.5 (16:20) 20.4 2 8 6.6 3.8
13-05-2020 21.8 (16:50) 12.2 (00:00) 17 11.67 (15:10) 6.67 (16:20) 3.4 0 0 0.2 3.2
12-05-2020 19.6 (16:50) 12.6 (09:40) 16.1 10.56 (15:30) 6.67 (15:30) 6 0 5.4 0.6 0
11-05-2020 22.2 (15:40) 13.7 (00:00) 18 10.56 (09:20) 6.67 (09:20) 0 0 0 0 0
10-05-2020 20.6 (16:00) 12.8 (00:00) 16.7 14.44 (11:50) 5.83 (16:40) 11.6 0.2 9.8 1.6 0
09-05-2020 22.9 (15:50) 13.9 (07:10) 18.4 10 (18:00) 5 (17:10) 0.2 0 0 0 0.2
08-05-2020 27.2 (14:30) 14.7 (00:00) 21 9.72 (14:00) 5.83 (00:50) 0 0 0 0 0
07-05-2020 30.4 (15:30) 15.5 (00:00) 22.9 10.83 (18:10) 6.67 (17:20) 0 0 0 0 0
06-05-2020 30.3 (17:20) 12.9 (00:00) 21.6 7.78 (13:50) 3.89 (14:20) 0 0 0 0 0
05-05-2020 27 (17:30) 14.4 (00:00) 20.7 8.06 (18:20) 4.44 (18:30) 0 0 0 0 0
04-05-2020 28.7 (12:20) 17.2 (00:00) 23 14.44 (12:30) 9.17 (12:30) 0 0 0 0 0
03-05-2020 36.5 (18:20) 15.6 (07:40) 26.1 8.33 (23:10) 6.11 (23:00) 0 0 0 0 0
02-05-2020 32.1 (19:00) 12.6 (07:20) 22.3 5 (14:10) 2.5 (14:20) 0 0 0 0 0
01-05-2020 27.1 (18:20) 10.8 (00:00) 19 7.5 (16:50) 3.89 (19:20) 0 0 0 0 0
30-04-2020 22.6 (17:10) 13.5 (05:20) 18.1 7.5 (18:40) 4.72 (18:40) 0 0 0 0 0
29-04-2020 22.3 (15:30) 8.4 (00:00) 15.3 8.33 (16:00) 5 (16:10) 0 0 0 0 0

Gráficas

Temp. máximas Temp. mínimas Temp. medias Precipitaciones Rachas de viento máximas Velocidades máximas media en intervalos de 10 minutos

Datos horarios

Fecha y hora oficial Temperatura (ºC) Velocidad del viento (km/h) Dirección del viento Racha (km/h) Dirección de racha Precipitación (mm) Presión (hPa) Tendencia (hPa) Humedad (%)
2020-05-28 23:00:00 22.3 16 Sur 27 Sudeste 0 -- -- 50
2020-05-28 22:00:00 23.2 14 Sur 25 Sudeste 0 -- -- 47
2020-05-28 21:00:00 25.6 13 Sur 27 Sur 0 -- -- 43
2020-05-28 20:00:00 28.1 17 Sur 28 Sur 0 -- -- 38
2020-05-28 19:00:00 29.9 14 Sur 27 Sudoeste 0 -- -- 36
2020-05-28 18:00:00 30.9 14 Sur 27 Sur 0 -- -- 34
2020-05-28 17:00:00 31.3 14 Sur 25 Sur 0 -- -- 33
2020-05-28 16:00:00 31.4 15 Sur 27 Sudoeste 0 -- -- 32
2020-05-28 15:00:00 31 6 Sur 22 Sur 0 -- -- 32
2020-05-28 14:00:00 30.1 9 Sudoeste 25 Sudeste 0 -- -- 35
2020-05-28 13:00:00 28 5 Noroeste 12 Noroeste 0 -- -- 38
2020-05-28 12:00:00 27.2 6 Nordeste 16 Norte 0 -- -- 38
2020-05-28 11:00:00 25.6 5 Norte 13 Sudeste 0 -- -- 46
2020-05-28 10:00:00 24.1 6 Sudeste 15 Sudeste 0 -- -- 47
2020-05-28 09:00:00 20.4 6 Sur 12 Sur 0 -- -- 60
2020-05-28 08:00:00 17.2 2 Este 15 Sudeste 0 -- -- 63
2020-05-28 07:00:00 18.9 11 Sudeste 19 Sudeste 0 -- -- 52
2020-05-28 06:00:00 17.9 12 Sudeste 16 Sudeste 0 -- -- 53
2020-05-28 05:00:00 17 5 Sudeste 11 Este 0 -- -- 58
2020-05-28 04:00:00 15.7 5 Este 10 Este 0 -- -- 63
2020-05-28 03:00:00 16.8 0 Calma 5 Noroeste 0 -- -- 61
2020-05-28 02:00:00 17.6 0 Calma 4 Norte 0 -- -- 57
2020-05-28 01:00:00 19.6 4 Nordeste 12 Sudeste 0 -- -- 49
2020-05-28 00:00:00 22.8 12 Sudeste 31 Sudeste 0 -- -- 39
2020-05-27 23:00:00 23.5 17 Sudeste 33 Sur 0 -- -- 39
2020-05-27 22:00:00 24.3 15 Sudeste 29 Sudeste 0 -- -- 36
2020-05-27 21:00:00 26.1 16 Sudeste 33 Sudeste 0 -- -- 33
2020-05-27 20:00:00 28.1 19 Sur 38 Sudeste 0 -- -- 32
2020-05-27 19:00:00 29.8 18 Sudeste 35 Sudeste 0 -- -- 30
2020-05-27 18:00:00 30.6 19 Sudeste 35 Sudeste 0 -- -- 30
2020-05-27 17:00:00 31.2 22 Sudeste 37 Sudeste 0 -- -- 30
2020-05-27 16:00:00 32.1 5 Sur 27 Sur 0 -- -- 31
2020-05-27 15:00:00 30.9 5 Sudoeste 19 Sur 0 -- -- 35
2020-05-27 14:00:00 30.5 7 Sudeste 16 Sudeste 0 -- -- 35
2020-05-27 13:00:00 29 4 Sur 12 Oeste 0 -- -- 34
2020-05-27 12:00:00 27.7 4 Sudeste 12 Sudeste 0 -- -- 36
2020-05-27 11:00:00 26 5 Norte 12 Sudeste 0 -- -- 41
2020-05-27 10:00:00 24.1 10 Sudeste 19 Sudeste 0 -- -- 44
2020-05-27 09:00:00 20.3 10 Sudeste 16 Sudeste 0 -- -- 56
2020-05-27 08:00:00 15.7 3 Este 8 Este 0 -- -- 76
2020-05-27 07:00:00 16 0 Calma 9 Sur 0 -- -- 72
2020-05-27 06:00:00 15.9 2 Sur 6 Sur 0 -- -- 72
2020-05-27 05:00:00 16.7 0 Calma 6 Noroeste 0 -- -- 68
2020-05-27 04:00:00 16.3 0 Calma 6 Este 0 -- -- 67
2020-05-27 03:00:00 17.6 2 Este 8 Este 0 -- -- 60
2020-05-27 02:00:00 18.9 0 Calma 8 Este 0 -- -- 56
2020-05-27 01:00:00 21 5 Sudeste 22 Sudeste 0 -- -- 49
2020-05-27 00:00:00 22.8 13 Sudeste 24 Sur 0 -- -- 41
2020-05-26 23:00:00 23.1 15 Sudeste 30 Sudeste 0 -- -- 42
2020-05-26 22:00:00 23.8 17 Sudeste 28 Sudeste 0 -- -- 43
2020-05-26 21:00:00 25.8 19 Sudeste 31 Sudeste 0 -- -- 40
2020-05-26 20:00:00 28.1 17 Sur 30 Sur 0 -- -- 37
2020-05-26 19:00:00 29.7 17 Sur 33 Sur 0 -- -- 34
2020-05-26 18:00:00 31.6 18 Sur 29 Sur 0 -- -- 31
2020-05-26 17:00:00 32.3 12 Sur 31 Sur 0 -- -- 31
2020-05-26 16:00:00 32 12 Sur 28 Sudeste 0 -- -- 31
2020-05-26 15:00:00 31.8 5 Norte 15 Noroeste 0 -- -- 29
2020-05-26 14:00:00 30.5 6 Norte 16 Noroeste 0 -- -- 29
2020-05-26 13:00:00 28.9 7 Noroeste 15 Norte 0 -- -- 30
2020-05-26 12:00:00 27.1 5 Noroeste 13 Noroeste 0 -- -- 35
2020-05-26 11:00:00 25.1 5 Noroeste 8 Noroeste 0 -- -- 41
2020-05-26 10:00:00 23 5 Noroeste 8 Noroeste 0 -- -- 45
2020-05-26 09:00:00 18.7 0 Calma 7 Este 0 -- -- 75
2020-05-26 08:00:00 14.6 5 Este 8 Este 0 -- -- 83
2020-05-26 07:00:00 14.4 0 Calma 5 Sudeste 0 -- -- 78
2020-05-26 06:00:00 15.1 0 Calma 7 Sudeste 0 -- -- 76
2020-05-26 05:00:00 16.5 3 Sur 5 Sur 0 -- -- 77
2020-05-26 04:00:00 17.4 0 Calma 6 Norte 0 -- -- 72
2020-05-26 03:00:00 18 4 Este 7 Este 0 -- -- 63
2020-05-26 02:00:00 19 3 Noroeste 10 Sudeste 0 -- -- 55
2020-05-26 01:00:00 21.2 6 Sudeste 22 Sudeste 0 -- -- 50
2020-05-26 00:00:00 22.5 17 Sudeste 26 Sudeste 0 -- -- 47
2020-05-25 23:00:00 23.1 17 Sudeste 29 Sudeste 0 -- -- 50
2020-05-25 22:00:00 23.7 17 Sudeste 29 Sudeste 0 -- -- 51
2020-05-25 21:00:00 25.9 17 Sur 30 Sur 0 -- -- 48
2020-05-25 20:00:00 28.2 16 Sur 29 Sudeste 0 -- -- 44
2020-05-25 19:00:00 30.2 14 Sur 26 Sur 0 -- -- 41
2020-05-25 18:00:00 30.9 15 Sur 30 Sudoeste 0 -- -- 40
2020-05-25 17:00:00 30.9 16 Sur 29 Sudoeste 0 -- -- 40
2020-05-25 16:00:00 32.6 13 Sur 22 Sudoeste 0 -- -- 36
2020-05-25 15:00:00 32.4 8 Sur 25 Sudoeste 0 -- -- 32
2020-05-25 14:00:00 31.4 7 Noroeste 12 Oeste 0 -- -- 29
2020-05-25 13:00:00 29.9 4 Norte 14 Nordeste 0 -- -- 29
2020-05-25 12:00:00 28 4 Norte 10 Norte 0 -- -- 37
2020-05-25 11:00:00 25.8 3 Norte 11 Norte 0 -- -- 45
2020-05-25 10:00:00 23.6 3 Norte 9 Norte 0 -- -- 52
2020-05-25 09:00:00 19.5 0 Calma 5 Sudeste 0 -- -- 64
2020-05-25 08:00:00 16.1 3 Este 9 Este 0 -- -- 69
2020-05-25 07:00:00 17 7 Este 10 Este 0 -- -- 60
2020-05-25 06:00:00 17 5 Sudeste 8 Este 0 -- -- 59
2020-05-25 05:00:00 16.8 4 Este 8 Este 0 -- -- 59
2020-05-25 04:00:00 17.3 5 Este 8 Sudeste 0 -- -- 55
2020-05-25 03:00:00 18.9 5 Este 7 Este 0 -- -- 50
2020-05-25 02:00:00 21.7 3 Noroeste 17 Sudeste 0 -- -- 41
2020-05-25 01:00:00 23 12 Sudeste 24 Sudeste 0 -- -- 37
2020-05-25 00:00:00 23.6 15 Sudeste 24 Sudeste 0 -- -- 37
2020-05-24 23:00:00 24.3 17 Sudeste 32 Sudeste 0 -- -- 35
2020-05-24 22:00:00 25.2 16 Sudeste 32 Sudeste 0 -- -- 35
2020-05-24 21:00:00 27 21 Sudeste 34 Sudeste 0 -- -- 33
2020-05-24 20:00:00 29 18 Sudeste 36 Sudeste 0 -- -- 34
2020-05-24 19:00:00 31.5 15 Sudeste 26 Sudeste 0 -- -- 32
2020-05-24 18:00:00 33.1 11 Sur 26 Sur 0 -- -- 29
2020-05-24 17:00:00 33.5 15 Sur 23 Sur 0 -- -- 28
2020-05-24 16:00:00 33.6 15 Sur 24 Sur 0 -- -- 26
2020-05-24 15:00:00 33.5 6 Noroeste 18 Noroeste 0 -- -- 29
2020-05-24 14:00:00 32.9 5 Norte 12 Norte 0 -- -- 32
2020-05-24 13:00:00 31.5 4 Nordeste 11 Este 0 -- -- 35
2020-05-24 12:00:00 30.3 5 Norte 12 Norte 0 -- -- 38
2020-05-24 11:00:00 28.2 4 Nordeste 8 Norte 0 -- -- 44
2020-05-24 10:00:00 25.7 4 Nordeste 9 Nordeste 0 -- -- 48
2020-05-24 09:00:00 22.3 5 Este 10 Este 0 -- -- 61
2020-05-24 08:00:00 18.6 6 Este 8 Este 0 -- -- 72
2020-05-24 07:00:00 18.8 3 Este 10 Este 0 -- -- 70
2020-05-24 06:00:00 19 5 Sudeste 9 Este 0 -- -- 63
2020-05-24 05:00:00 18.7 4 Sudeste 8 Este 0 -- -- 70
2020-05-24 04:00:00 18.5 4 Este 5 Este 0 -- -- 71
2020-05-24 03:00:00 19.1 4 Este 6 Este 0 -- -- 67
2020-05-24 02:00:00 20.1 0 Calma 4 Este 0 -- -- 64
2020-05-24 01:00:00 21.7 2 Este 5 Sur 0 -- -- 59
2020-05-24 00:00:00 23.6 3 Sudoeste 11 Sudeste 0 -- -- 50
2020-05-23 23:00:00 26.1 9 Sur 14 Sur 0 -- -- 42
2020-05-23 22:00:00 28.1 9 Sur 15 Sur 0 -- -- 40
2020-05-23 21:00:00 31.8 5 Sudoeste 18 Sudoeste 0 -- -- 34
2020-05-23 20:00:00 33.5 7 Sudoeste 23 Sudoeste 0 -- -- 31
2020-05-23 19:00:00 34.9 12 Sudoeste 31 Sudeste 0 -- -- 30
2020-05-23 18:00:00 36.5 7 Noroeste 17 Oeste 0 -- -- 25
2020-05-23 17:00:00 37.1 6 Norte 15 Oeste 0 -- -- 23
2020-05-23 16:00:00 36.4 4 Noroeste 13 Norte 0 -- -- 25
2020-05-23 15:00:00 35.6 4 Norte 13 Nordeste 0 -- -- 24
2020-05-23 14:00:00 34.3 7 Norte 15 Norte 0 -- -- 29
2020-05-23 13:00:00 32.7 6 Nordeste 12 Norte 0 -- -- 38
2020-05-23 12:00:00 29.8 4 Nordeste 11 Nordeste 0 -- -- 43
2020-05-23 11:00:00 27 4 Norte 8 Norte 0 -- -- 51
2020-05-23 10:00:00 24.3 3 Noroeste 9 Oeste 0 -- -- 62
2020-05-23 09:00:00 22.1 0 Calma 6 Este 0 -- -- 66
2020-05-23 08:00:00 18.7 5 Sudeste 10 Sudeste 0 -- -- 72
2020-05-23 07:00:00 17.5 5 Sudeste 7 Este 0 -- -- 77
2020-05-23 06:00:00 18.8 3 Este 4 Este 0 -- -- 72
2020-05-23 05:00:00 20.6 0 Calma 8 Sudeste 0 -- -- 64
2020-05-23 04:00:00 21.5 3 Sudeste 7 Sudeste 0 -- -- 64
2020-05-23 03:00:00 22.7 5 Sur 13 Sur 0 -- -- 60
2020-05-23 02:00:00 22.2 4 Sur 9 Sur 0 -- -- 57
2020-05-23 01:00:00 22.7 4 Sur 8 Sur 0 -- -- 55
2020-05-23 00:00:00 24.4 6 Sur 8 Sur 0 -- -- 51
2020-05-22 23:00:00 25.8 4 Sudoeste 6 Sur 0 -- -- 51
2020-05-22 22:00:00 28.1 4 Sur 9 Sudoeste 0 -- -- 48
2020-05-22 21:00:00 31.8 4 Sudoeste 18 Noroeste 0 -- -- 34
2020-05-22 20:00:00 33.8 8 Noroeste 12 Oeste 0 -- -- 29
2020-05-22 19:00:00 34.8 6 Noroeste 14 Noroeste 0 -- -- 26
2020-05-22 18:00:00 34.8 9 Noroeste 17 Noroeste 0 -- -- 25
2020-05-22 17:00:00 35 6 Noroeste 15 Noroeste 0 -- -- 24
2020-05-22 16:00:00 35.2 3 Sur 21 Noroeste 0 -- -- 21
2020-05-22 15:00:00 33.8 9 Noroeste 18 Noroeste 0 -- -- 26
2020-05-22 14:00:00 33.3 6 Norte 14 Noroeste 0 -- -- 30
2020-05-22 13:00:00 32.3 4 Nordeste 10 Nordeste 0 -- -- 34
2020-05-22 12:00:00 30.1 5 Norte 11 Norte 0 -- -- 41
2020-05-22 11:00:00 28.2 3 Norte 10 Norte 0 -- -- 46
2020-05-22 10:00:00 25.5 5 Nordeste 9 Nordeste 0 -- -- 54
2020-05-22 09:00:00 21.2 4 Este 10 Este 0 -- -- 67
2020-05-22 08:00:00 18.5 7 Este 10 Este 0 -- -- 77
2020-05-22 07:00:00 18.1 5 Este 11 Este 0 -- -- 77
2020-05-22 06:00:00 18 6 Este 11 Este 0 -- -- 81
2020-05-22 05:00:00 18.1 4 Este 9 Este 0 -- -- 85
2020-05-22 04:00:00 17.5 4 Sudeste 7 Sudeste 0 -- -- 82
2020-05-22 03:00:00 19 3 Sur 7 Sudeste 0 -- -- 76
2020-05-22 02:00:00 20.9 4 Sur 12 Sudeste 0 -- -- 74
2020-05-22 01:00:00 21.5 6 Sudeste 12 Sudeste 0 -- -- 72
2020-05-22 00:00:00 22 2 Sur 8 Sur 0 -- -- 69
2020-05-21 23:00:00 22.9 5 Sur 6 Sur 0 -- -- 68
2020-05-21 22:00:00 24.7 3 Sudoeste 9 Sudoeste 0 -- -- 65
2020-05-21 21:00:00 27.1 3 Oeste 14 Oeste 0 -- -- 59
2020-05-21 20:00:00 28.5 10 Oeste 25 Oeste 0 -- -- 57
2020-05-21 19:00:00 30.8 10 Oeste 22 Oeste 0 -- -- 50
2020-05-21 18:00:00 32.4 10 Oeste 21 Oeste 0 -- -- 38
2020-05-21 17:00:00 32.8 10 Oeste 20 Oeste 0 -- -- 44
2020-05-21 16:00:00 32.9 6 Noroeste 19 Sudoeste 0 -- -- 36
2020-05-21 15:00:00 31.7 9 Noroeste 21 Oeste 0 -- -- 40
2020-05-21 14:00:00 30.9 6 Sudoeste 14 Noroeste 0 -- -- 41
2020-05-21 13:00:00 28.8 4 Noroeste 9 Oeste 0 -- -- 45
2020-05-21 12:00:00 27.3 3 Norte 10 Nordeste 0 -- -- 48
2020-05-21 11:00:00 24.9 4 Noroeste 9 Oeste 0 -- -- 54
2020-05-21 10:00:00 23.1 3 Norte 6 Noroeste 0 -- -- 61
2020-05-21 09:00:00 20.2 2 Nordeste 6 Este 0 -- -- 69
2020-05-21 08:00:00 16.4 4 Este 7 Este 0 -- -- 85
2020-05-21 07:00:00 16 4 Este 11 Este 0 -- -- 82
2020-05-21 06:00:00 17.2 5 Este 7 Este 0 -- -- 76
2020-05-21 05:00:00 18.8 2 Sudeste 9 Sudeste 0 -- -- 67
2020-05-21 04:00:00 18.1 3 Sur 6 Sudeste 0 -- -- 71
2020-05-21 03:00:00 19.1 2 Sudoeste 8 Sudeste 0 -- -- 69
2020-05-21 02:00:00 19.3 3 Sur 10 Sudeste 0 -- -- 71
2020-05-21 01:00:00 20.3 9 Sudeste 12 Sudeste 0 -- -- 69
2020-05-21 00:00:00 21 6 Sur 12 Sudeste 0 -- -- 67
2020-05-20 23:00:00 22.3 3 Sudoeste 8 Sur 0 -- -- 64
2020-05-20 22:00:00 24 3 Sudoeste 18 Noroeste 0 -- -- 57
2020-05-20 21:00:00 28.5 4 Oeste 14 Oeste 0 -- -- 47
2020-05-20 20:00:00 29.8 8 Oeste 19 Oeste 0 -- -- 43
2020-05-20 19:00:00 31.7 5 Noroeste 23 Noroeste 0 -- -- 34
2020-05-20 18:00:00 31.9 10 Noroeste 19 Noroeste 0 -- -- 36
2020-05-20 17:00:00 31 11 Oeste 26 Oeste 0 -- -- 37
2020-05-20 16:00:00 30.5 12 Oeste 23 Noroeste 0 -- -- 41
2020-05-20 15:00:00 29.7 9 Oeste 20 Oeste 0 -- -- 42
2020-05-20 14:00:00 29.2 10 Noroeste 17 Noroeste 0 -- -- 46
2020-05-20 13:00:00 28.2 10 Noroeste 18 Noroeste 0 -- -- 47
2020-05-20 12:00:00 26.5 6 Oeste 10 Oeste 0 -- -- 51
2020-05-20 11:00:00 22.9 5 Noroeste 8 Noroeste 0 -- -- 62
2020-05-20 10:00:00 20.9 0 Calma 8 Noroeste 0 -- -- 67
2020-05-20 09:00:00 21.4 3 Noroeste 14 Sudeste 0 -- -- 68
2020-05-20 08:00:00 19.5 6 Este 14 Este 0 -- -- 64
2020-05-20 07:00:00 18 9 Este 14 Sudeste 0 -- -- 68
2020-05-20 06:00:00 17.2 4 Sudeste 8 Sudeste 0 -- -- 71
2020-05-20 05:00:00 17.2 4 Sudeste 8 Sudeste 0 -- -- 74
2020-05-20 04:00:00 17.8 3 Sur 8 Sudeste 0 -- -- 70
2020-05-20 03:00:00 18.4 4 Sur 9 Sur 0 -- -- 70
2020-05-20 02:00:00 19.4 6 Sur 8 Sur 0 -- -- 68
2020-05-20 01:00:00 19.5 5 Sur 6 Sur 0 -- -- 70
2020-05-20 00:00:00 20.3 4 Sudeste 9 Sur 0 -- -- 71
2020-05-19 23:00:00 22.2 6 Sur 12 Sur 0 -- -- 66
2020-05-19 22:00:00 24.3 7 Sudoeste 14 Sur 0 -- -- 50
2020-05-19 21:00:00 27 5 Sudoeste 21 Sudoeste 0 -- -- 43
2020-05-19 20:00:00 30 8 Sudoeste 17 Sudoeste 0 -- -- 40
2020-05-19 19:00:00 31.9 5 Noroeste 18 Noroeste 0 -- -- 33
2020-05-19 18:00:00 32.1 8 Norte 15 Norte 0 -- -- 31
2020-05-19 17:00:00 32.3 5 Norte 14 Nordeste 0 -- -- 33
2020-05-19 16:00:00 31.8 6 Nordeste 17 Norte 0 -- -- 34
2020-05-19 15:00:00 31.2 5 Norte 17 Nordeste 0 -- -- 33
2020-05-19 14:00:00 29.7 4 Noroeste 15 Nordeste 0 -- -- 36
2020-05-19 13:00:00 28.9 4 Norte 12 Nordeste 0 -- -- 39
2020-05-19 12:00:00 27.1 5 Nordeste 10 Norte 0 -- -- 48
2020-05-19 11:00:00 25.3 4 Norte 11 Norte 0 -- -- 56
2020-05-19 10:00:00 22.9 5 Nordeste 9 Nordeste 0 -- -- 63
2020-05-19 09:00:00 19.4 5 Este 13 Este 0 -- -- 72
2020-05-19 08:00:00 16.8 7 Este 10 Este 0 -- -- 80
2020-05-19 07:00:00 16.6 4 Este 8 Este 0 -- -- 82
2020-05-19 06:00:00 15.8 4 Este 7 Este 0 -- -- 86
2020-05-19 05:00:00 15.4 4 Sudeste 7 Este 0 -- -- 85
2020-05-19 04:00:00 16.1 4 Sudeste 8 Sudeste 0 -- -- 81
2020-05-19 03:00:00 15.7 4 Sur 6 Sudeste 0 -- -- 84
2020-05-19 02:00:00 16.9 3 Sur 10 Sur 0 -- -- 81
2020-05-19 01:00:00 18.2 4 Sur 9 Sudoeste 0 -- -- 76
2020-05-19 00:00:00 19 4 Sur 13 Sudoeste 0 -- -- 75
2020-05-18 23:00:00 20.9 3 Oeste 10 Oeste 0 -- -- 67
2020-05-18 22:00:00 22.7 4 Sudoeste 14 Oeste 0 -- -- 58
2020-05-18 21:00:00 25.1 10 Oeste 18 Oeste 0 -- -- 51
2020-05-18 20:00:00 27.8 11 Noroeste 21 Noroeste 0 -- -- 38
2020-05-18 19:00:00 28.6 9 Norte 22 Noroeste 0 -- -- 41
2020-05-18 18:00:00 28.7 7 Noroeste 22 Noroeste 0 -- -- 41
2020-05-18 17:00:00 29 8 Norte 21 Noroeste 0 -- -- 38
2020-05-18 16:00:00 28.6 8 Norte 20 Norte 0 -- -- 38
2020-05-18 15:00:00 27.6 5 Norte 18 Noroeste 0 -- -- 43
2020-05-18 14:00:00 26.3 5 Noroeste 16 Norte 0 -- -- 48
2020-05-18 13:00:00 25.3 6 Norte 14 Norte 0 -- -- 55
2020-05-18 12:00:00 23.6 7 Nordeste 15 Norte 0 -- -- 58
2020-05-18 11:00:00 21.1 6 Norte 14 Norte 0 -- -- 67
2020-05-18 10:00:00 19.1 7 Nordeste 13 Nordeste 0 -- -- 74
2020-05-18 09:00:00 16.3 4 Nordeste 13 Este 0 -- -- 84
2020-05-18 08:00:00 14.2 7 Este 14 Este 0 -- -- 88
2020-05-18 07:00:00 13.1 6 Este 9 Este 0 -- -- 91
2020-05-18 06:00:00 14.1 3 Sudeste 13 Sudeste 0 -- -- 88
2020-05-18 05:00:00 14.9 5 Sudeste 16 Sudeste 0 -- -- 85
2020-05-18 04:00:00 15.2 13 Sudeste 16 Sudeste 0 -- -- 85
2020-05-18 03:00:00 15.6 8 Sudeste 12 Sur 0 -- -- 85
2020-05-18 02:00:00 15.6 6 Sudeste 10 Sur 0 -- -- 86
2020-05-18 01:00:00 16.1 4 Sur 9 Sudeste 0 -- -- 84
2020-05-18 00:00:00 16.2 3 Sur 7 Sur 0 -- -- 83
2020-05-17 23:00:00 16.8 2 Sudoeste 4 Sudoeste 0 -- -- 82
2020-05-17 22:00:00 17.6 2 Sur 14 Sudeste 0 -- -- 77
2020-05-17 21:00:00 19.5 10 Sudeste 23 Sur 0 -- -- 67
2020-05-17 20:00:00 21.6 15 Sur 34 Sur 0 -- -- 60
2020-05-17 19:00:00 21.6 18 Sur 42 Sur 0 -- -- 62
2020-05-17 18:00:00 24.8 8 Oeste 20 Oeste 0 -- -- 55
2020-05-17 17:00:00 24.5 8 Noroeste 17 Oeste 0 -- -- 55
2020-05-17 16:00:00 23.9 8 Oeste 19 Noroeste 0 -- -- 57
2020-05-17 15:00:00 23.1 10 Noroeste 18 Noroeste 0 -- -- 65
2020-05-17 14:00:00 22.8 8 Noroeste 17 Noroeste 0 -- -- 61
2020-05-17 13:00:00 21.5 5 Noroeste 14 Norte 0 -- -- 64
2020-05-17 12:00:00 20.8 5 Norte 16 Norte 0 -- -- 69
2020-05-17 11:00:00 19.5 4 Nordeste 13 Norte 0 -- -- 71
2020-05-17 10:00:00 17.8 3 Nordeste 8 Nordeste 0 -- -- 77
2020-05-17 09:00:00 15 4 Este 10 Este 0 -- -- 86
2020-05-17 08:00:00 12.1 5 Este 9 Este 0 -- -- 93
2020-05-17 07:00:00 12.6 5 Este 10 Sudeste 0 -- -- 91
2020-05-17 06:00:00 13.4 2 Sur 14 Sudeste 0 -- -- 88
2020-05-17 05:00:00 13.5 10 Sudeste 15 Sudeste 0 -- -- 90
2020-05-17 04:00:00 12.8 6 Sudeste 9 Sudeste 0 -- -- 95
2020-05-17 03:00:00 13.5 6 Sudeste 14 Sudeste 0 -- -- 92
2020-05-17 02:00:00 14.1 10 Sudeste 14 Sudeste 0 -- -- 92
2020-05-17 01:00:00 14.1 8 Sudeste 12 Sudeste 0 -- -- 93
2020-05-17 00:00:00 14.5 10 Sudeste 12 Sudeste 0 -- -- 92
2020-05-16 23:00:00 14.9 2 Sur 10 Sur 0 -- -- 89
2020-05-16 22:00:00 15.6 6 Sur 9 Sur 0 -- -- 86
2020-05-16 21:00:00 17 6 Sur 19 Sur 0 -- -- 79
2020-05-16 20:00:00 17.1 13 Sur 21 Sudeste 0 -- -- 80
2020-05-16 19:00:00 17.4 14 Sur 27 Sur 0 -- -- 74
2020-05-16 18:00:00 18.2 17 Sur 27 Sur 0 -- -- 68
2020-05-16 17:00:00 17.3 12 Sur 24 Sudeste 0 -- -- 76
2020-05-16 16:00:00 20.8 6 Noroeste 29 Noroeste 0 -- -- 59
2020-05-16 15:00:00 22 10 Noroeste 23 Norte 0 -- -- 63
2020-05-16 14:00:00 21 9 Noroeste 16 Noroeste 0 -- -- 59
2020-05-16 13:00:00 20.2 6 Noroeste 15 Oeste 0 -- -- 62
2020-05-16 12:00:00 19.4 4 Noroeste 12 Oeste 0 -- -- 67
2020-05-16 11:00:00 17.9 4 Noroeste 9 Noroeste 0 -- -- 81
2020-05-16 10:00:00 16.7 0 Calma 5 Noroeste 0 -- -- 78
2020-05-16 09:00:00 15.7 2 Sur 10 Sur 0 -- -- 84
2020-05-16 08:00:00 13.6 6 Sudeste 10 Sudeste 0.2 -- -- 95
2020-05-16 07:00:00 13.3 0 Calma 7 Este 0 -- -- 95
2020-05-16 06:00:00 13.2 3 Sudeste 6 Este 0 -- -- 96
2020-05-16 05:00:00 12.8 3 Sudeste 4 Este 0 -- -- 95
2020-05-16 04:00:00 13.2 4 Este 5 Este 0 -- -- 94
2020-05-16 03:00:00 14.4 3 Sudoeste 4 Sudoeste 0 -- -- 93
2020-05-16 02:00:00 14.7 0 Calma 5 Oeste 0 -- -- 92
2020-05-16 01:00:00 14.9 3 Sudoeste 5 Sudoeste 0 -- -- 92
2020-05-16 00:00:00 15 2 Sudoeste 4 Este 0 -- -- 91
2020-05-15 23:00:00 15.3 0 Calma 10 Noroeste 0 -- -- 88
2020-05-15 22:00:00 16.4 2 Noroeste 7 Noroeste 0 -- -- 85
2020-05-15 21:00:00 17.4 0 Calma 17 Sudoeste 0 -- -- 81
2020-05-15 20:00:00 18.2 11 Sur 21 Sur 0 -- -- 74
2020-05-15 19:00:00 17.3 14 Sur 22 Sur 0 -- -- 79
2020-05-15 18:00:00 15.9 11 Sur 23 Sur 0 -- -- 80
2020-05-15 17:00:00 15.1 10 Sur 20 Sur 1 -- -- 84
2020-05-15 16:00:00 17.5 13 Sur 22 Sudeste 0.2 -- -- 75
2020-05-15 15:00:00 19.9 8 Noroeste 25 Oeste 0 -- -- 59
2020-05-15 14:00:00 19.5 10 Noroeste 15 Noroeste 0 -- -- 59
2020-05-15 13:00:00 20 3 Nordeste 17 Nordeste 0 -- -- 54
2020-05-15 12:00:00 18.7 6 Nordeste 15 Sudeste 0 -- -- 64
2020-05-15 11:00:00 18.3 4 Nordeste 11 Este 0 -- -- 65
2020-05-15 10:00:00 16.2 6 Este 16 Sudeste 0 -- -- 75
2020-05-15 09:00:00 13.6 6 Este 16 Sudeste 0 -- -- 83
2020-05-15 08:00:00 13.6 11 Sudeste 22 Sudeste 0 -- -- 79
2020-05-15 07:00:00 12.5 10 Sudeste 22 Sudeste 0 -- -- 83
2020-05-15 06:00:00 12.6 12 Sudeste 23 Sudeste 0 -- -- 84
2020-05-15 05:00:00 12.1 8 Sudeste 19 Sur 0 -- -- 87
2020-05-15 04:00:00 12.4 11 Sudeste 18 Sudeste 0 -- -- 86
2020-05-15 03:00:00 12.7 11 Sudeste 22 Sudeste 0 -- -- 85
2020-05-15 02:00:00 13.5 13 Sudeste 34 Sudeste 0 -- -- 82
2020-05-15 01:00:00 14.1 18 Sudeste 30 Sudeste 0 -- -- 83
2020-05-15 00:00:00 14.4 14 Sudeste 30 Sur 0 -- -- 87
2020-05-14 23:00:00 14.3 13 Sur 23 Sur 0 -- -- 88
2020-05-14 22:00:00 14.6 10 Sudeste 25 Sur 0 -- -- 86
2020-05-14 21:00:00 15.1 14 Sur 23 Sur 0 -- -- 89
2020-05-14 20:00:00 14.4 11 Sur 33 Sur 0.2 -- -- 92
2020-05-14 19:00:00 14.1 14 Sur 39 Sur 3.6 -- -- 91
2020-05-14 18:00:00 15.6 8 Oeste 33 Sur 0 -- -- 82
2020-05-14 17:00:00 14.3 17 Sur 49 Sur 0.4 -- -- 92
2020-05-14 16:00:00 14.3 24 Sur 49 Sudoeste 1.6 -- -- 91
2020-05-14 15:00:00 13.8 20 Sur 45 Sur 2.6 -- -- 92
2020-05-14 14:00:00 15.4 22 Sur 51 Sur 0.6 -- -- 86
2020-05-14 13:00:00 14.3 13 Sur 32 Sur 1.4 -- -- 93
2020-05-14 12:00:00 12.8 15 Sur 33 Sudoeste 1 -- -- 92
2020-05-14 11:00:00 11.7 20 Sur 45 Sur 2 -- -- 91
2020-05-14 10:00:00 12.8 19 Sur 40 Sur 1 -- -- 91
2020-05-14 09:00:00 12.4 17 Sudeste 33 Sur 1.6 -- -- 92
2020-05-14 08:00:00 12.4 20 Sur 44 Sur 1.8 -- -- 90
2020-05-14 07:00:00 11.6 12 Sudeste 22 Sur 0.6 -- -- 92
2020-05-14 06:00:00 12 12 Sur 22 Sudeste 1 -- -- 90
2020-05-14 05:00:00 12.2 15 Sur 35 Sudeste 0 -- -- 89
2020-05-14 04:00:00 12.4 10 Sur 22 Sur 0 -- -- 92
2020-05-14 03:00:00 12.6 15 Sudeste 23 Sudeste 0 -- -- 92
2020-05-14 02:00:00 12.6 13 Sudeste 24 Sudeste 1 -- -- 93
2020-05-14 01:00:00 12.7 10 Sudeste 18 Sudeste 0 -- -- 94
2020-05-14 00:00:00 12.7 12 Sudeste 20 Sudeste 0 -- -- 95
2020-05-13 23:00:00 12.9 8 Sur 15 Sur 0 -- -- 95
2020-05-13 22:00:00 13.1 4 Sudoeste 17 Sur 0 -- -- 93
2020-05-13 21:00:00 13.5 9 Sur 16 Sur 0.2 -- -- 93
2020-05-13 20:00:00 13.7 5 Sudeste 19 Sudoeste 0.8 -- -- 91
2020-05-13 19:00:00 14 8 Sudoeste 31 Oeste 2.2 -- -- 91
2020-05-13 18:00:00 17.9 14 Sudoeste 37 Sudoeste 0.2 -- -- 67
2020-05-13 17:00:00 21.3 21 Sur 40 Sur 0 -- -- 49
2020-05-13 16:00:00 20.3 21 Sur 42 Sur 0 -- -- 57
2020-05-13 15:00:00 20.9 22 Sur 37 Sur 0 -- -- 55
2020-05-13 14:00:00 20.9 19 Sur 37 Sur 0 -- -- 54
2020-05-13 13:00:00 20.3 22 Sur 33 Sur 0 -- -- 52
2020-05-13 12:00:00 18.3 17 Sur 34 Sudoeste 0 -- -- 67
2020-05-13 11:00:00 16 14 Sur 26 Sudeste 0 -- -- 78
2020-05-13 10:00:00 14.8 13 Sudeste 21 Sudeste 0 -- -- 85
2020-05-13 09:00:00 13.8 8 Sur 17 Sur 0 -- -- 88
2020-05-13 08:00:00 13.6 12 Sur 19 Sur 0 -- -- 86
2020-05-13 07:00:00 12.9 9 Sudeste 15 Sudeste 0 -- -- 87
2020-05-13 06:00:00 12.2 9 Sudeste 16 Sudeste 0 -- -- 90
2020-05-13 05:00:00 12.8 6 Sur 15 Sudeste 0 -- -- 90
2020-05-13 04:00:00 12.3 8 Sudeste 13 Sudeste 0 -- -- 90
2020-05-13 03:00:00 12.8 5 Sur 9 Sur 0 -- -- 88
2020-05-13 02:00:00 12.8 5 Sur 11 Sudeste 0 -- -- 89
2020-05-13 01:00:00 12.8 5 Sur 12 Sur 0 -- -- 88
2020-05-13 00:00:00 13 9 Sur 12 Sur 0 -- -- 88
2020-05-12 23:00:00 13.5 8 Sur 12 Sur 0 -- -- 85
2020-05-12 22:00:00 14.4 4 Sur 12 Oeste 0 -- -- 79
2020-05-12 21:00:00 16.4 5 Sudoeste 18 Sudoeste 0 -- -- 70
2020-05-12 20:00:00 18 7 Sudoeste 26 Sudoeste 0 -- -- 63
2020-05-12 19:00:00 18.8 13 Sudoeste 28 Sudoeste 0 -- -- 63
2020-05-12 18:00:00 18.9 10 Sudoeste 31 Sur 0 -- -- 62
2020-05-12 17:00:00 19.2 15 Sudoeste 30 Sudoeste 0 -- -- 61
2020-05-12 16:00:00 18 15 Sur 38 Sur 0 -- -- 69
2020-05-12 15:00:00 15.9 14 Sur 27 Sudeste 0 -- -- 85
2020-05-12 14:00:00 14.8 11 Sur 33 Sur 0.6 -- -- 90
2020-05-12 13:00:00 16.4 15 Sur 24 Sudoeste 0 -- -- 79
2020-05-12 12:00:00 15.3 11 Sur 19 Sudoeste 0.2 -- -- 90
2020-05-12 11:00:00 13 3 Sudoeste 10 Oeste 1.6 -- -- 96
2020-05-12 10:00:00 12.6 6 Oeste 30 Oeste 3.6 -- -- 95
2020-05-12 09:00:00 14.8 8 Sur 16 Sur 0 -- -- 91
2020-05-12 08:00:00 14.5 11 Sudeste 19 Sudeste 0 -- -- 92
2020-05-12 07:00:00 14.7 5 Sur 14 Sudeste 0 -- -- 91
2020-05-12 06:00:00 14.2 7 Sudeste 13 Sudeste 0 -- -- 93
2020-05-12 05:00:00 14.1 12 Sudeste 16 Sudeste 0 -- -- 93
2020-05-12 04:00:00 14.1 9 Sudeste 14 Sudeste 0 -- -- 93
2020-05-12 03:00:00 14.1 0 Calma 8 Sudeste 0 -- -- 91
2020-05-12 02:00:00 14.5 3 Sur 6 Sudeste 0 -- -- 90
2020-05-12 01:00:00 14.9 5 Sur 8 Sudeste 0 -- -- 88
2020-05-12 00:00:00 15.2 3 Sudeste 8 Sur 0 -- -- 86
2020-05-11 23:00:00 15.6 2 Sur 5 Sur 0 -- -- 82
2020-05-11 22:00:00 16.8 3 Sudoeste 5 Sudoeste 0 -- -- 76
2020-05-11 21:00:00 18.1 0 Calma 12 Oeste 0 -- -- 70
2020-05-11 20:00:00 18.8 5 Oeste 16 Noroeste 0 -- -- 65
2020-05-11 19:00:00 19.5 8 Oeste 22 Oeste 0 -- -- 64
2020-05-11 18:00:00 20.2 11 Oeste 31 Noroeste 0 -- -- 61
2020-05-11 17:00:00 21 12 Oeste 31 Sudoeste 0 -- -- 62
2020-05-11 16:00:00 21.4 13 Oeste 31 Noroeste 0 -- -- 57
2020-05-11 15:00:00 21.1 14 Oeste 34 Sudoeste 0 -- -- 58
2020-05-11 14:00:00 21.4 8 Sudoeste 29 Oeste 0 -- -- 63
2020-05-11 13:00:00 18.5 9 Sudoeste 34 Oeste 0 -- -- 75
2020-05-11 12:00:00 19.6 15 Sudoeste 37 Sudoeste 0 -- -- 72
2020-05-11 11:00:00 19.2 16 Sudoeste 38 Sur 0 -- -- 73
2020-05-11 10:00:00 17.7 17 Sur 38 Sur 0 -- -- 84
2020-05-11 09:00:00 16.2 20 Sur 33 Sur 0 -- -- 90
2020-05-11 08:00:00 14.8 13 Sur 27 Sur 0 -- -- 93
2020-05-11 07:00:00 14.6 14 Sur 28 Sur 0 -- -- 91
2020-05-11 06:00:00 14.9 15 Sur 25 Sudoeste 0 -- -- 92
2020-05-11 05:00:00 14.5 13 Sur 24 Sur 0 -- -- 93
2020-05-11 04:00:00 14.2 10 Sur 19 Sur 0 -- -- 92
2020-05-11 03:00:00 14 8 Sur 14 Sur 0 -- -- 89
2020-05-11 02:00:00 13.8 6 Sur 14 Sur 0 -- -- 88
2020-05-11 01:00:00 14.1 7 Sur 12 Sudoeste 0 -- -- 87
2020-05-11 00:00:00 14.7 7 Sudoeste 14 Sur 0 -- -- 85
2020-05-10 23:00:00 15.1 5 Sudoeste 14 Sudoeste 0 -- -- 83
2020-05-10 22:00:00 16.1 5 Sudoeste 19 Oeste 0 -- -- 79
2020-05-10 21:00:00 17 5 Oeste 26 Sudoeste 0 -- -- 73
2020-05-10 20:00:00 18.6 9 Sudoeste 26 Sudoeste 0 -- -- 64
2020-05-10 19:00:00 19.6 9 Oeste 30 Oeste 0 -- -- 61
2020-05-10 18:00:00 20 9 Oeste 37 Noroeste 0 -- -- 63
2020-05-10 17:00:00 19.3 15 Oeste 39 Oeste 0 -- -- 66
2020-05-10 16:00:00 20.6 16 Oeste 34 Noroeste 0 -- -- 62
2020-05-10 15:00:00 19.4 10 Sudoeste 26 Sudoeste 0 -- -- 73
2020-05-10 14:00:00 18.2 7 Oeste 28 Oeste 1.2 -- -- 85
2020-05-10 13:00:00 17.7 6 Sudoeste 17 Oeste 0.4 -- -- 88
2020-05-10 12:00:00 12.8 19 Norte 52 Noroeste 5.2 -- -- 94
2020-05-10 11:00:00 14.8 8 Noroeste 17 Noroeste 2.8 -- -- 90
2020-05-10 10:00:00 15.5 8 Sur 15 Sur 0 -- -- 90
2020-05-10 09:00:00 13.9 3 Sudoeste 21 Sudoeste 1.8 -- -- 93
2020-05-10 08:00:00 13 5 Sur 9 Sur 0 -- -- 93
2020-05-10 07:00:00 13.1 4 Sur 5 Sudoeste 0 -- -- 93
2020-05-10 06:00:00 13.5 4 Sudoeste 9 Sudoeste 0 -- -- 92
2020-05-10 05:00:00 14 3 Sudoeste 10 Sudoeste 0 -- -- 91
2020-05-10 04:00:00 14.9 3 Sudoeste 10 Oeste 0.2 -- -- 90
2020-05-10 03:00:00 15.6 4 Sudoeste 10 Oeste 0 -- -- 87
2020-05-10 02:00:00 15.6 3 Sudoeste 15 Sudoeste 0 -- -- 89
2020-05-10 01:00:00 15.3 6 Sur 17 Sur 0 -- -- 92
2020-05-10 00:00:00 15.1 9 Sur 17 Sur 0 -- -- 91
2020-05-09 23:00:00 15.3 10 Sur 17 Sudoeste 0 -- -- 89
2020-05-09 22:00:00 15.5 6 Sudoeste 14 Sur 0 -- -- 88
2020-05-09 21:00:00 15.7 8 Sudoeste 18 Sur 0 -- -- 93
2020-05-09 20:00:00 15.8 10 Oeste 27 Sudoeste 0.2 -- -- 91
2020-05-09 19:00:00 20.3 11 Sudoeste 34 Sudoeste 0 -- -- 58
2020-05-09 18:00:00 22 13 Sudoeste 36 Sur 0 -- -- 52
2020-05-09 17:00:00 22.5 12 Sudoeste 32 Sudoeste 0 -- -- 51
2020-05-09 16:00:00 22.7 14 Sudoeste 30 Sur 0 -- -- 50
2020-05-09 15:00:00 22 12 Sudoeste 28 Sudoeste 0 -- -- 49
2020-05-09 14:00:00 21.2 10 Sudoeste 21 Oeste 0 -- -- 54
2020-05-09 13:00:00 19.8 7 Sudoeste 20 Noroeste 0 -- -- 62
2020-05-09 12:00:00 18.9 12 Oeste 22 Oeste 0 -- -- 67
2020-05-09 11:00:00 18.3 8 Sudoeste 16 Sur 0 -- -- 69
2020-05-09 10:00:00 17.6 8 Sudoeste 16 Sudoeste 0 -- -- 72
2020-05-09 09:00:00 15.9 8 Sur 12 Sur 0 -- -- 82
2020-05-09 08:00:00 14.6 9 Sur 14 Sur 0 -- -- 90
2020-05-09 07:00:00 14 4 Sur 11 Sur 0 -- -- 89
2020-05-09 06:00:00 14.9 6 Sur 12 Sur 0 -- -- 87
2020-05-09 05:00:00 15.3 8 Sur 15 Sur 0 -- -- 88
2020-05-09 04:00:00 15.2 9 Sur 15 Sur 0 -- -- 91
2020-05-09 03:00:00 15.2 6 Sur 14 Sur 0 -- -- 88
2020-05-09 02:00:00 15.9 6 Sudoeste 13 Sudoeste 0 -- -- 85
2020-05-09 01:00:00 16.3 2 Sudoeste 11 Sudoeste 0 -- -- 84
2020-05-09 00:00:00 16.8 5 Sur 12 Oeste 0 -- -- 81
2020-05-08 23:00:00 17.3 5 Sudoeste 13 Sudoeste 0 -- -- 78
2020-05-08 22:00:00 17.9 3 Sudoeste 14 Sudoeste 0 -- -- 75
2020-05-08 21:00:00 19.3 4 Oeste 22 Oeste 0 -- -- 68
2020-05-08 20:00:00 20.9 12 Oeste 35 Oeste 0 -- -- 63
2020-05-08 19:00:00 23.8 9 Oeste 30 Oeste 0 -- -- 54
2020-05-08 18:00:00 24.8 10 Sudoeste 29 Sudoeste 0 -- -- 56
2020-05-08 17:00:00 25.4 12 Oeste 32 Sudoeste 0 -- -- 56
2020-05-08 16:00:00 25.5 13 Sudoeste 32 Sur 0 -- -- 56
2020-05-08 15:00:00 26.3 14 Sudoeste 35 Sur 0 -- -- 55
2020-05-08 14:00:00 27.1 19 Sur 35 Sur 0 -- -- 43
2020-05-08 13:00:00 26.7 12 Sur 23 Sudoeste 0 -- -- 44
2020-05-08 12:00:00 24.7 6 Sur 14 Sudeste 0 -- -- 46
2020-05-08 11:00:00 23 8 Sudoeste 16 Sur 0 -- -- 53
2020-05-08 10:00:00 20.6 5 Este 12 Sudeste 0 -- -- 61
2020-05-08 09:00:00 17.2 5 Este 11 Este 0 -- -- 71
2020-05-08 08:00:00 14.8 5 Este 10 Este 0 -- -- 77
2020-05-08 07:00:00 14.8 6 Este 10 Este 0 -- -- 76
2020-05-08 06:00:00 15.5 6 Este 10 Este 0 -- -- 71
2020-05-08 05:00:00 15.9 6 Este 9 Este 0 -- -- 66
2020-05-08 04:00:00 18.2 5 Sudeste 21 Sudeste 0 -- -- 56
2020-05-08 03:00:00 20.5 14 Sudeste 30 Sudeste 0 -- -- 48
2020-05-08 02:00:00 21 18 Sudeste 35 Sudeste 0 -- -- 48
2020-05-08 01:00:00 21.5 21 Sudeste 34 Sudeste 0 -- -- 46
2020-05-08 00:00:00 21.7 13 Sur 29 Sur 0 -- -- 44
2020-05-07 23:00:00 22.1 13 Sur 32 Sudeste 0 -- -- 43
2020-05-07 22:00:00 22.5 14 Sur 26 Sudeste 0 -- -- 42
2020-05-07 21:00:00 23.8 17 Sur 33 Sur 0 -- -- 42
2020-05-07 20:00:00 26.2 17 Sur 38 Sudeste 0 -- -- 41
2020-05-07 19:00:00 27.7 18 Sur 39 Sur 0 -- -- 40
2020-05-07 18:00:00 28.2 23 Sur 37 Sudoeste 0 -- -- 40
2020-05-07 17:00:00 29.4 20 Sur 34 Sudeste 0 -- -- 38
2020-05-07 16:00:00 30.2 14 Sur 34 Sudeste 0 -- -- 36
2020-05-07 15:00:00 30 11 Sudeste 26 Sudeste 0 -- -- 37
2020-05-07 14:00:00 27.5 12 Sudeste 28 Sudeste 0 -- -- 42
2020-05-07 13:00:00 26.7 12 Sudeste 20 Sudeste 0 -- -- 47
2020-05-07 12:00:00 24.5 7 Noroeste 13 Noroeste 0 -- -- 45
2020-05-07 11:00:00 23.3 5 Noroeste 10 Noroeste 0 -- -- 49
2020-05-07 10:00:00 21 4 Este 18 Sudeste 0 -- -- 57
2020-05-07 09:00:00 18.2 6 Este 16 Este 0 -- -- 67
2020-05-07 08:00:00 16.5 4 Este 7 Este 0 -- -- 70
2020-05-07 07:00:00 15.6 4 Sudeste 7 Este 0 -- -- 74
2020-05-07 06:00:00 15.9 3 Sudeste 6 Este 0 -- -- 71
2020-05-07 05:00:00 15.6 0 Calma 4 Sur 0 -- -- 72
2020-05-07 04:00:00 17.2 2 Sudeste 9 Sudoeste 0 -- -- 66
2020-05-07 03:00:00 18.6 4 Sur 6 Sur 0 -- -- 59
2020-05-07 02:00:00 19.7 4 Sur 17 Sudeste 0 -- -- 55
2020-05-07 01:00:00 20.4 5 Este 11 Sudeste 0 -- -- 49
2020-05-07 00:00:00 21.5 5 Sudeste 10 Este 0 -- -- 49
2020-05-06 23:00:00 22.7 4 Este 10 Este 0 -- -- 46
2020-05-06 22:00:00 23.9 6 Nordeste 12 Nordeste 0 -- -- 43
2020-05-06 21:00:00 25.6 7 Norte 13 Norte 0 -- -- 39
2020-05-06 20:00:00 28 7 Norte 17 Norte 0 -- -- 35
2020-05-06 19:00:00 30.1 9 Norte 22 Nordeste 0 -- -- 28
2020-05-06 18:00:00 29.7 10 Nordeste 23 Nordeste 0 -- -- 30
2020-05-06 17:00:00 29.8 9 Norte 26 Norte 0 -- -- 31
2020-05-06 16:00:00 28.9 9 Nordeste 24 Nordeste 0 -- -- 34
2020-05-06 15:00:00 28.4 12 Nordeste 27 Norte 0 -- -- 35
2020-05-06 14:00:00 26.8 13 Norte 28 Norte 0 -- -- 39
2020-05-06 13:00:00 25.7 12 Nordeste 24 Nordeste 0 -- -- 43
2020-05-06 12:00:00 23.6 12 Norte 23 Nordeste 0 -- -- 53
2020-05-06 11:00:00 21 12 Nordeste 21 Norte 0 -- -- 64
2020-05-06 10:00:00 18.2 8 Norte 16 Norte 0 -- -- 79
2020-05-06 09:00:00 14.9 2 Norte 8 Este 0 -- -- 95
2020-05-06 08:00:00 13 4 Este 8 Este 0 -- -- 94
2020-05-06 07:00:00 13.3 4 Sudeste 8 Sur 0 -- -- 92
2020-05-06 06:00:00 14.5 5 Sur 12 Sudeste 0 -- -- 92
2020-05-06 05:00:00 14.7 7 Sur 12 Sur 0 -- -- 91
2020-05-06 04:00:00 14.6 6 Sur 13 Sur 0 -- -- 90
2020-05-06 03:00:00 15.2 8 Sur 14 Sur 0 -- -- 88
2020-05-06 02:00:00 15.7 6 Sur 15 Sur 0 -- -- 86
2020-05-06 01:00:00 15.7 8 Sur 12 Sur 0 -- -- 84
2020-05-06 00:00:00 16.4 5 Sur 13 Oeste 0 -- -- 81
2020-05-05 23:00:00 17.1 5 Oeste 15 Oeste 0 -- -- 76
2020-05-05 22:00:00 18.1 8 Oeste 19 Oeste 0 -- -- 69
2020-05-05 21:00:00 20.6 9 Oeste 26 Oeste 0 -- -- 61
2020-05-05 20:00:00 23.4 13 Oeste 24 Noroeste 0 -- -- 49
2020-05-05 19:00:00 24.9 15 Oeste 29 Oeste 0 -- -- 46
2020-05-05 18:00:00 26.9 11 Noroeste 23 Noroeste 0 -- -- 38
2020-05-05 17:00:00 26.6 11 Noroeste 24 Noroeste 0 -- -- 42
2020-05-05 16:00:00 26 10 Noroeste 20 Noroeste 0 -- -- 42
2020-05-05 15:00:00 25.4 9 Noroeste 18 Noroeste 0 -- -- 46
2020-05-05 14:00:00 23.8 9 Noroeste 19 Noroeste 0 -- -- 51
2020-05-05 13:00:00 22.6 5 Nordeste 13 Norte 0 -- -- 63
2020-05-05 12:00:00 20.6 6 Norte 15 Nordeste 0 -- -- 71
2020-05-05 11:00:00 18.7 6 Norte 13 Norte 0 -- -- 78
2020-05-05 10:00:00 17.2 7 Nordeste 11 Nordeste 0 -- -- 86
2020-05-05 09:00:00 16.4 4 Noroeste 11 Noroeste 0 -- -- 93
2020-05-05 08:00:00 16 0 Calma 5 Nordeste 0 -- -- 94
2020-05-05 07:00:00 15.5 0 Calma 8 Sudeste 0 -- -- 94
2020-05-05 06:00:00 14.4 0 Calma 5 Sudeste 0 -- -- 94
2020-05-05 05:00:00 15 3 Sur 6 Sur 0 -- -- 93
2020-05-05 04:00:00 15.7 5 Sur 14 Sudeste 0 -- -- 92
2020-05-05 03:00:00 16.3 7 Sudeste 13 Sur 0 -- -- 92
2020-05-05 02:00:00 16.4 7 Sur 10 Sur 0 -- -- 91
2020-05-05 01:00:00 16.7 7 Sur 10 Sur 0 -- -- 88
2020-05-05 00:00:00 17.2 3 Sur 10 Sur 0 -- -- 84
2020-05-04 23:00:00 17.8 2 Sur 6 Sur 0 -- -- 81
2020-05-04 22:00:00 18.7 2 Sudoeste 12 Sudoeste 0 -- -- 77
2020-05-04 21:00:00 20.1 4 Sudoeste 24 Noroeste 0 -- -- 72
2020-05-04 20:00:00 21.6 9 Oeste 24 Oeste 0 -- -- 64
2020-05-04 19:00:00 22.7 14 Oeste 35 Oeste 0 -- -- 62
2020-05-04 18:00:00 24.5 21 Oeste 36 Noroeste 0 -- -- 57
2020-05-04 17:00:00 27.1 9 Oeste 23 Sur 0 -- -- 44
2020-05-04 16:00:00 26.1 11 Sudoeste 27 Oeste 0 -- -- 48
2020-05-04 15:00:00 26.1 10 Oeste 35 Sudoeste 0 -- -- 50
2020-05-04 14:00:00 26.3 19 Sudoeste 46 Sudoeste 0 -- -- 51
2020-05-04 13:00:00 27.6 27 Sur 52 Sur 0 -- -- 52
2020-05-04 12:00:00 28.5 26 Sur 39 Sudoeste 0 -- -- 36
2020-05-04 11:00:00 25.3 6 Oeste 21 Oeste 0 -- -- 46
2020-05-04 10:00:00 23.4 9 Oeste 27 Noroeste 0 -- -- 52
2020-05-04 09:00:00 26.1 19 Sur 48 Sudeste 0 -- -- 32
2020-05-04 08:00:00 24.9 29 Sudeste 49 Sudeste 0 -- -- 33
2020-05-04 07:00:00 24.8 24 Sudeste 42 Sudeste 0 -- -- 35
2020-05-04 06:00:00 23.8 11 Sudeste 22 Sudeste 0 -- -- 36
2020-05-04 05:00:00 26.6 17 Sudeste 35 Sudeste 0 -- -- 30
2020-05-04 04:00:00 26 19 Sur 36 Sudeste 0 -- -- 33
2020-05-04 03:00:00 26.1 19 Sur 37 Sudeste 0 -- -- 33
2020-05-04 02:00:00 26.4 22 Sudeste 40 Sudeste 0 -- -- 32
2020-05-04 01:00:00 26 23 Sudeste 44 Sur 0 -- -- 35
2020-05-04 00:00:00 24.7 13 Sudeste 30 Sudeste 0 -- -- 42
2020-05-03 23:00:00 25 22 Sudeste 29 Sudeste 0 -- -- 44
2020-05-03 22:00:00 26.5 20 Sudeste 27 Sudeste 0 -- -- 42
2020-05-03 21:00:00 29.3 14 Sudeste 22 Sudeste 0 -- -- 37
2020-05-03 20:00:00 33.1 11 Sudeste 17 Sudeste 0 -- -- 32
2020-05-03 19:00:00 35.5 8 Sur 14 Sudeste 0 -- -- 25
2020-05-03 18:00:00 36 2 Norte 12 Sur 0 -- -- 23
2020-05-03 17:00:00 36.1 5 Sur 14 Sur 0 -- -- 22
2020-05-03 16:00:00 35.3 9 Sur 21 Sur 0 -- -- 23
2020-05-03 15:00:00 34.8 10 Sur 22 Sur 0 -- -- 26
2020-05-03 14:00:00 33.5 12 Sudeste 23 Sudeste 0 -- -- 28
2020-05-03 13:00:00 32.1 11 Sudeste 26 Sur 0 -- -- 32
2020-05-03 12:00:00 29.9 13 Sudeste 22 Sudeste 0 -- -- 35
2020-05-03 11:00:00 27.8 9 Sudeste 17 Sudeste 0 -- -- 39
2020-05-03 10:00:00 24.8 4 Este 8 Este 0 -- -- 56
2020-05-03 09:00:00 19.4 5 Este 9 Sudeste 0 -- -- 69
2020-05-03 08:00:00 16.1 6 Este 10 Este 0 -- -- 84
2020-05-03 07:00:00 16.2 4 Este 10 Sudeste 0 -- -- 85
2020-05-03 06:00:00 16.6 5 Sudeste 10 Sudeste 0 -- -- 85
2020-05-03 05:00:00 17.6 4 Este 9 Sudeste 0 -- -- 81
2020-05-03 04:00:00 18.5 4 Sudeste 9 Sudeste 0 -- -- 76
2020-05-03 03:00:00 17.1 3 Este 5 Este 0 -- -- 82
2020-05-03 02:00:00 19 4 Sudeste 10 Sudeste 0 -- -- 73
2020-05-03 01:00:00 19 4 Sudeste 7 Sudeste 0 -- -- 73
2020-05-03 00:00:00 19.2 2 Sur 8 Oeste 0 -- -- 75
2020-05-02 23:00:00 22.4 4 Sudoeste 8 Oeste 0 -- -- 63
2020-05-02 22:00:00 24.3 3 Sudoeste 11 Oeste 0 -- -- 62
2020-05-02 21:00:00 27.7 7 Oeste 17 Oeste 0 -- -- 53
2020-05-02 20:00:00 31.3 6 Noroeste 14 Norte 0 -- -- 37
2020-05-02 19:00:00 32.1 4 Nordeste 14 Norte 0 -- -- 33
2020-05-02 18:00:00 31.7 8 Noroeste 18 Norte 0 -- -- 37
2020-05-02 17:00:00 31.8 7 Noroeste 17 Noroeste 0 -- -- 37
2020-05-02 16:00:00 31.5 4 Norte 18 Norte 0 -- -- 36
2020-05-02 15:00:00 30.2 6 Norte 18 Norte 0 -- -- 37
2020-05-02 14:00:00 29.1 7 Norte 16 Nordeste 0 -- -- 48
2020-05-02 13:00:00 27.4 7 Norte 18 Noroeste 0 -- -- 57
2020-05-02 12:00:00 25.4 7 Norte 14 Nordeste 0 -- -- 64
2020-05-02 11:00:00 23.4 6 Norte 10 Nordeste 0 -- -- 68
2020-05-02 10:00:00 20.4 4 Nordeste 10 Nordeste 0 -- -- 76
2020-05-02 09:00:00 16.2 4 Norte 12 Nordeste 0 -- -- 95
2020-05-02 08:00:00 13.6 5 Este 6 Este 0 -- -- 95
2020-05-02 07:00:00 12.9 0 Calma 4 Este 0 -- -- 93
2020-05-02 06:00:00 13.7 3 Este 6 Nordeste 0 -- -- 92
2020-05-02 05:00:00 14.4 3 Este 5 Este 0 -- -- 90
2020-05-02 04:00:00 15.4 3 Sudeste 7 Sudeste 0 -- -- 89
2020-05-02 03:00:00 15.6 4 Sudeste 7 Sudeste 0 -- -- 87
2020-05-02 02:00:00 16.1 3 Sur 9 Sur 0 -- -- 86
2020-05-02 01:00:00 16.4 4 Sur 8 Sur 0 -- -- 85
2020-05-02 00:00:00 16.9 4 Sudoeste 9 Sudoeste 0 -- -- 83
2020-05-01 23:00:00 17.6 4 Sudoeste 10 Sudoeste 0 -- -- 78
2020-05-01 22:00:00 18.8 3 Sudoeste 10 Oeste 0 -- -- 74
2020-05-01 21:00:00 21.6 3 Oeste 18 Noroeste 0 -- -- 65
2020-05-01 20:00:00 24.3 10 Oeste 23 Oeste 0 -- -- 56
2020-05-01 19:00:00 26.6 9 Noroeste 19 Norte 0 -- -- 47
2020-05-01 18:00:00 26.9 9 Noroeste 21 Noroeste 0 -- -- 48
2020-05-01 17:00:00 26.8 8 Noroeste 27 Noroeste 0 -- -- 47
2020-05-01 16:00:00 26.4 7 Noroeste 18 Norte 0 -- -- 48
2020-05-01 15:00:00 25.2 7 Noroeste 18 Noroeste 0 -- -- 51
2020-05-01 14:00:00 24.2 8 Noroeste 18 Noroeste 0 -- -- 53
2020-05-01 13:00:00 22.8 7 Noroeste 16 Noroeste 0 -- -- 56
2020-05-01 12:00:00 21.7 5 Norte 14 Nordeste 0 -- -- 65
2020-05-01 11:00:00 19.3 7 Norte 14 Norte 0 -- -- 75
2020-05-01 10:00:00 16.3 4 Norte 8 Norte 0 -- -- 93
2020-05-01 09:00:00 13.9 2 Norte 5 Norte 0 -- -- 97
2020-05-01 08:00:00 10.9 0 Calma 3 Este 0 -- -- 96
2020-05-01 07:00:00 11.2 3 Sudeste 5 Sudeste 0 -- -- 95
2020-05-01 06:00:00 11.7 3 Sudeste 4 Sudeste 0 -- -- 95
2020-05-01 05:00:00 12.4 3 Sur 5 Sudoeste 0 -- -- 95
2020-05-01 04:00:00 13 3 Sur 10 Sur 0 -- -- 94
2020-05-01 03:00:00 13 3 Sur 5 Sudoeste 0 -- -- 92
2020-05-01 02:00:00 14.2 3 Sur 6 Sur 0 -- -- 90
2020-05-01 01:00:00 14.6 5 Sur 10 Sur 0 -- -- 89
2020-05-01 00:00:00 15 5 Sur 10 Sur 0 -- -- 87
2020-04-30 23:00:00 16 5 Sudoeste 12 Sudoeste 0 -- -- 84
2020-04-30 22:00:00 17 0 Calma 7 Sudoeste 0 -- -- 80
2020-04-30 21:00:00 19.3 3 Oeste 12 Sudoeste 0 -- -- 66
2020-04-30 20:00:00 20.4 12 Oeste 25 Noroeste 0 -- -- 62
2020-04-30 19:00:00 21.4 15 Oeste 27 Noroeste 0 -- -- 60
2020-04-30 18:00:00 22.6 11 Oeste 22 Oeste 0 -- -- 51
2020-04-30 17:00:00 22.5 12 Oeste 24 Oeste 0 -- -- 54
2020-04-30 16:00:00 21.6 9 Noroeste 23 Noroeste 0 -- -- 59
2020-04-30 15:00:00 20.4 11 Oeste 19 Noroeste 0 -- -- 64
2020-04-30 14:00:00 19.7 12 Oeste 24 Noroeste 0 -- -- 67
2020-04-30 13:00:00 19.1 13 Noroeste 22 Noroeste 0 -- -- 72
2020-04-30 12:00:00 16.7 6 Oeste 22 Sudoeste 0 -- -- 91
2020-04-30 11:00:00 17.7 4 Sudoeste 15 Sudoeste 0 -- -- 84
2020-04-30 10:00:00 16.6 9 Sudoeste 17 Sudoeste 0 -- -- 90
2020-04-30 09:00:00 15.1 5 Sur 13 Sur 0 -- -- 94
2020-04-30 08:00:00 14.4 8 Sur 14 Sur 0 -- -- 94
2020-04-30 07:00:00 14 8 Sur 13 Sur 0 -- -- 94
2020-04-30 06:00:00 13.8 4 Sur 7 Sur 0 -- -- 94
2020-04-30 05:00:00 13.8 4 Sur 10 Sur 0 -- -- 93
2020-04-30 04:00:00 14 6 Sur 11 Sur 0 -- -- 91
2020-04-30 03:00:00 14.6 8 Sur 16 Sur 0 -- -- 89
2020-04-30 02:00:00 14.5 9 Sur 18 Sur 0 -- -- 88
2020-04-30 01:00:00 14 9 Sur 17 Sur 0 -- -- 88
2020-04-30 00:00:00 14.2 8 Sur 14 Sur 0 -- -- 86
2020-04-29 23:00:00 14.6 4 Sur 8 Sudoeste 0 -- -- 83
2020-04-29 22:00:00 15.5 4 Sudoeste 12 Sudoeste 0 -- -- 77
2020-04-29 21:00:00 17.6 3 Sudoeste 18 Oeste 0 -- -- 65
2020-04-29 20:00:00 19.4 5 Oeste 21 Oeste 0 -- -- 58
2020-04-29 19:00:00 19.9 10 Oeste 28 Oeste 0 -- -- 49
2020-04-29 18:00:00 21.4 13 Oeste 26 Oeste 0 -- -- 43
2020-04-29 17:00:00 21.7 15 Oeste 29 Noroeste 0 -- -- 46
2020-04-29 16:00:00 21.8 17 Oeste 30 Oeste 0 -- -- 46
2020-04-29 15:00:00 21.7 13 Oeste 26 Noroeste 0 -- -- 48
2020-04-29 14:00:00 21.3 8 Oeste 19 Oeste 0 -- -- 52
2020-04-29 13:00:00 20.9 6 Oeste 17 Oeste 0 -- -- 55
2020-04-29 12:00:00 20.2 4 Norte 10 Noroeste 0 -- -- 57
2020-04-29 11:00:00 18.1 4 Norte 8 Sudeste 0 -- -- 67
2020-04-29 10:00:00 15.6 4 Este 9 Este 0 -- -- 85
2020-04-29 09:00:00 11.7 3 Este 8 Este 0 -- -- 97
2020-04-29 08:00:00 8.5 4 Este 6 Este 0 -- -- 96
2020-04-29 07:00:00 8.7 0 Calma 3 Este 0 -- -- 95
2020-04-29 06:00:00 9.6 2 Sur 4 Sur 0 -- -- 94
2020-04-29 05:00:00 10.9 4 Sur 5 Sur 0 -- -- 94
2020-04-29 04:00:00 11.3 3 Sur 6 Sur 0 -- -- 92
2020-04-29 03:00:00 12.2 3 Sur 10 Sur 0 -- -- 88
2020-04-29 02:00:00 12.7 5 Sur 10 Sur 0 -- -- 89
2020-04-29 01:00:00 13 6 Sudeste 12 Sudeste 0 -- -- 88
2020-04-29 00:00:00 13.5 6 Sur 9 Sur 0 -- -- 86